sensor_id;sensor_type;location;lat;lon;timestamp;temperature;humidity
11067;DHT22;29763;50.904;5.530;2023-07-29T00:01:02;18.50;99.90
11067;DHT22;29763;50.904;5.530;2023-07-29T00:03:35;18.60;99.90
11067;DHT22;29763;50.904;5.530;2023-07-29T00:06:02;18.60;99.90
11067;DHT22;29763;50.904;5.530;2023-07-29T00:08:27;18.60;99.90
11067;DHT22;29763;50.904;5.530;2023-07-29T00:10:53;18.60;99.90
11067;DHT22;29763;50.904;5.530;2023-07-29T00:13:19;18.60;99.90
11067;DHT22;29763;50.904;5.530;2023-07-29T00:15:46;18.70;99.90
11067;DHT22;29763;50.904;5.530;2023-07-29T00:18:13;18.70;99.90
11067;DHT22;29763;50.904;5.530;2023-07-29T00:20:38;18.70;99.90
11067;DHT22;29763;50.904;5.530;2023-07-29T00:23:06;18.70;99.90
11067;DHT22;29763;50.904;5.530;2023-07-29T00:25:33;18.80;99.90
11067;DHT22;29763;50.904;5.530;2023-07-29T00:28:01;18.80;99.90
11067;DHT22;29763;50.904;5.530;2023-07-29T00:30:26;18.80;99.90
11067;DHT22;29763;50.904;5.530;2023-07-29T00:32:52;18.80;99.90
11067;DHT22;29763;50.904;5.530;2023-07-29T00:35:18;18.80;99.90
11067;DHT22;29763;50.904;5.530;2023-07-29T00:37:45;18.70;99.90
11067;DHT22;29763;50.904;5.530;2023-07-29T00:40:20;18.80;99.90
11067;DHT22;29763;50.904;5.530;2023-07-29T00:42:49;18.90;99.90
11067;DHT22;29763;50.904;5.530;2023-07-29T00:45:18;18.90;99.90
11067;DHT22;29763;50.904;5.530;2023-07-29T00:47:45;18.90;99.90
11067;DHT22;29763;50.904;5.530;2023-07-29T00:50:12;19.00;99.90
11067;DHT22;29763;50.904;5.530;2023-07-29T00:52:39;18.90;99.90
11067;DHT22;29763;50.904;5.530;2023-07-29T00:55:05;18.90;99.90
11067;DHT22;29763;50.904;5.530;2023-07-29T00:57:33;19.00;99.90
11067;DHT22;29763;50.904;5.530;2023-07-29T00:59:59;19.00;99.90
11067;DHT22;29763;50.904;5.530;2023-07-29T01:02:26;19.00;99.90
11067;DHT22;29763;50.904;5.530;2023-07-29T01:04:56;19.00;99.90
11067;DHT22;29763;50.904;5.530;2023-07-29T01:15:43;19.00;99.90
11067;DHT22;29763;50.904;5.530;2023-07-29T01:18:31;18.90;99.90
11067;DHT22;29763;50.904;5.530;2023-07-29T01:21:05;18.90;99.90
11067;DHT22;29763;50.904;5.530;2023-07-29T01:23:34;19.00;99.90
11067;DHT22;29763;50.904;5.530;2023-07-29T01:26:01;19.00;99.90
11067;DHT22;29763;50.904;5.530;2023-07-29T01:28:27;19.00;99.90
11067;DHT22;29763;50.904;5.530;2023-07-29T01:31:12;19.10;99.90
11067;DHT22;29763;50.904;5.530;2023-07-29T01:33:44;19.10;99.90
11067;DHT22;29763;50.904;5.530;2023-07-29T01:36:17;19.10;99.90
11067;DHT22;29763;50.904;5.530;2023-07-29T01:38:45;19.20;99.90
11067;DHT22;29763;50.904;5.530;2023-07-29T01:41:15;19.20;99.90
11067;DHT22;29763;50.904;5.530;2023-07-29T01:43:56;19.20;99.90
11067;DHT22;29763;50.904;5.530;2023-07-29T01:46:22;19.20;99.90
11067;DHT22;29763;50.904;5.530;2023-07-29T01:48:47;19.20;99.90
11067;DHT22;29763;50.904;5.530;2023-07-29T01:51:13;19.20;99.90
11067;DHT22;29763;50.904;5.530;2023-07-29T01:53:45;19.20;99.90
11067;DHT22;29763;50.904;5.530;2023-07-29T01:56:10;19.20;99.90
11067;DHT22;29763;50.904;5.530;2023-07-29T01:58:36;19.20;99.90
11067;DHT22;29763;50.904;5.530;2023-07-29T02:01:08;19.20;99.90
11067;DHT22;29763;50.904;5.530;2023-07-29T02:03:34;19.20;99.90
11067;DHT22;29763;50.904;5.530;2023-07-29T02:06:00;19.20;99.90
11067;DHT22;29763;50.904;5.530;2023-07-29T02:08:26;19.20;99.90
11067;DHT22;29763;50.904;5.530;2023-07-29T02:10:52;19.10;99.90
11067;DHT22;29763;50.904;5.530;2023-07-29T02:13:18;19.10;99.90
11067;DHT22;29763;50.904;5.530;2023-07-29T02:15:45;19.10;99.90
11067;DHT22;29763;50.904;5.530;2023-07-29T02:18:16;19.00;99.90
11067;DHT22;29763;50.904;5.530;2023-07-29T02:20:42;19.00;99.90
11067;DHT22;29763;50.904;5.530;2023-07-29T02:23:15;18.90;99.90
11067;DHT22;29763;50.904;5.530;2023-07-29T02:25:41;18.90;99.90
11067;DHT22;29763;50.904;5.530;2023-07-29T02:28:07;18.80;99.90
11067;DHT22;29763;50.904;5.530;2023-07-29T02:30:32;18.80;99.90
11067;DHT22;29763;50.904;5.530;2023-07-29T02:33:02;18.80;99.90
11067;DHT22;29763;50.904;5.530;2023-07-29T02:35:28;18.80;99.90
11067;DHT22;29763;50.904;5.530;2023-07-29T02:37:55;18.80;99.90
11067;DHT22;29763;50.904;5.530;2023-07-29T02:40:21;18.80;99.90
11067;DHT22;29763;50.904;5.530;2023-07-29T02:42:55;18.70;99.90
11067;DHT22;29763;50.904;5.530;2023-07-29T02:45:21;18.70;99.90
11067;DHT22;29763;50.904;5.530;2023-07-29T02:47:48;18.80;99.90
11067;DHT22;29763;50.904;5.530;2023-07-29T02:50:15;18.70;99.90
11067;DHT22;29763;50.904;5.530;2023-07-29T02:52:42;18.80;99.90
11067;DHT22;29763;50.904;5.530;2023-07-29T02:55:10;18.70;99.90
11067;DHT22;29763;50.904;5.530;2023-07-29T02:57:37;18.70;99.90
11067;DHT22;29763;50.904;5.530;2023-07-29T03:00:03;18.70;99.90
11067;DHT22;29763;50.904;5.530;2023-07-29T03:02:28;18.60;99.90
11067;DHT22;29763;50.904;5.530;2023-07-29T03:04:55;18.60;99.90
11067;DHT22;29763;50.904;5.530;2023-07-29T03:07:23;18.60;99.90
11067;DHT22;29763;50.904;5.530;2023-07-29T03:09:57;18.50;99.90
11067;DHT22;29763;50.904;5.530;2023-07-29T03:12:23;18.50;99.90
11067;DHT22;29763;50.904;5.530;2023-07-29T03:14:49;18.50;99.90
11067;DHT22;29763;50.904;5.530;2023-07-29T03:17:14;18.40;99.90
11067;DHT22;29763;50.904;5.530;2023-07-29T03:19:40;18.40;99.90
11067;DHT22;29763;50.904;5.530;2023-07-29T03:22:06;18.40;99.90
11067;DHT22;29763;50.904;5.530;2023-07-29T03:24:33;18.30;99.90
11067;DHT22;29763;50.904;5.530;2023-07-29T03:27:00;18.30;99.90
11067;DHT22;29763;50.904;5.530;2023-07-29T03:29:27;18.30;99.90
11067;DHT22;29763;50.904;5.530;2023-07-29T03:31:53;18.20;99.90
11067;DHT22;29763;50.904;5.530;2023-07-29T03:34:19;18.20;99.90
11067;DHT22;29763;50.904;5.530;2023-07-29T03:36:46;18.20;99.90
11067;DHT22;29763;50.904;5.530;2023-07-29T03:39:14;18.10;99.90
11067;DHT22;29763;50.904;5.530;2023-07-29T03:41:44;18.00;99.90
11067;DHT22;29763;50.904;5.530;2023-07-29T03:44:10;18.10;99.90
11067;DHT22;29763;50.904;5.530;2023-07-29T03:46:35;18.10;99.90
11067;DHT22;29763;50.904;5.530;2023-07-29T03:49:01;18.10;99.90
11067;DHT22;29763;50.904;5.530;2023-07-29T03:51:29;18.00;99.90
11067;DHT22;29763;50.904;5.530;2023-07-29T03:53:55;18.10;99.90
11067;DHT22;29763;50.904;5.530;2023-07-29T03:56:21;18.10;99.90
11067;DHT22;29763;50.904;5.530;2023-07-29T03:58:46;18.20;99.90
11067;DHT22;29763;50.904;5.530;2023-07-29T04:01:15;18.10;99.90
11067;DHT22;29763;50.904;5.530;2023-07-29T04:03:40;18.00;99.90
11067;DHT22;29763;50.904;5.530;2023-07-29T04:06:06;17.90;99.90
11067;DHT22;29763;50.904;5.530;2023-07-29T04:08:33;17.80;99.90
11067;DHT22;29763;50.904;5.530;2023-07-29T04:10:59;17.80;99.90
11067;DHT22;29763;50.904;5.530;2023-07-29T04:13:24;17.70;99.90
11067;DHT22;29763;50.904;5.530;2023-07-29T04:15:51;17.70;99.90
11067;DHT22;29763;50.904;5.530;2023-07-29T04:18:17;17.60;99.90
11067;DHT22;29763;50.904;5.530;2023-07-29T04:20:43;17.60;99.90
11067;DHT22;29763;50.904;5.530;2023-07-29T04:23:10;17.60;99.90
11067;DHT22;29763;50.904;5.530;2023-07-29T04:25:35;17.50;99.90
11067;DHT22;29763;50.904;5.530;2023-07-29T04:28:01;17.50;99.90
11067;DHT22;29763;50.904;5.530;2023-07-29T04:30:28;17.50;99.90
11067;DHT22;29763;50.904;5.530;2023-07-29T04:32:54;17.50;99.90
11067;DHT22;29763;50.904;5.530;2023-07-29T04:35:26;17.60;99.90
11067;DHT22;29763;50.904;5.530;2023-07-29T04:37:52;17.60;99.90
11067;DHT22;29763;50.904;5.530;2023-07-29T04:40:18;17.60;99.90
11067;DHT22;29763;50.904;5.530;2023-07-29T04:42:43;17.60;99.90
11067;DHT22;29763;50.904;5.530;2023-07-29T04:45:09;17.60;99.90
11067;DHT22;29763;50.904;5.530;2023-07-29T04:47:35;17.60;99.90
11067;DHT22;29763;50.904;5.530;2023-07-29T04:50:01;17.60;99.90
11067;DHT22;29763;50.904;5.530;2023-07-29T04:52:32;17.60;99.90
11067;DHT22;29763;50.904;5.530;2023-07-29T04:54:57;17.60;99.90
11067;DHT22;29763;50.904;5.530;2023-07-29T04:57:24;17.60;99.90
11067;DHT22;29763;50.904;5.530;2023-07-29T04:59:51;17.60;99.90
11067;DHT22;29763;50.904;5.530;2023-07-29T05:02:16;17.60;99.90
11067;DHT22;29763;50.904;5.530;2023-07-29T05:04:42;17.60;99.90
11067;DHT22;29763;50.904;5.530;2023-07-29T05:07:09;17.60;99.90
11067;DHT22;29763;50.904;5.530;2023-07-29T05:09:35;17.60;99.90
11067;DHT22;29763;50.904;5.530;2023-07-29T05:12:00;17.60;99.90
11067;DHT22;29763;50.904;5.530;2023-07-29T05:14:26;17.60;99.90
11067;DHT22;29763;50.904;5.530;2023-07-29T05:16:52;17.60;99.90
11067;DHT22;29763;50.904;5.530;2023-07-29T05:19:18;17.50;99.90
11067;DHT22;29763;50.904;5.530;2023-07-29T05:21:44;17.50;99.90
11067;DHT22;29763;50.904;5.530;2023-07-29T05:24:11;17.50;99.90
11067;DHT22;29763;50.904;5.530;2023-07-29T05:26:41;17.60;99.90
11067;DHT22;29763;50.904;5.530;2023-07-29T05:29:14;17.60;99.90
11067;DHT22;29763;50.904;5.530;2023-07-29T05:31:39;17.70;99.90
11067;DHT22;29763;50.904;5.530;2023-07-29T05:34:06;17.70;99.90
11067;DHT22;29763;50.904;5.530;2023-07-29T05:36:35;17.80;99.90
11067;DHT22;29763;50.904;5.530;2023-07-29T05:39:03;17.90;99.90
11067;DHT22;29763;50.904;5.530;2023-07-29T05:41:30;18.00;99.90
11067;DHT22;29763;50.904;5.530;2023-07-29T05:43:57;18.10;99.90
11067;DHT22;29763;50.904;5.530;2023-07-29T05:46:23;18.20;99.90
11067;DHT22;29763;50.904;5.530;2023-07-29T05:48:48;18.30;99.90
11067;DHT22;29763;50.904;5.530;2023-07-29T05:51:14;18.40;99.90
11067;DHT22;29763;50.904;5.530;2023-07-29T05:53:40;18.40;99.90
11067;DHT22;29763;50.904;5.530;2023-07-29T05:56:06;18.50;99.90
11067;DHT22;29763;50.904;5.530;2023-07-29T05:58:31;18.50;99.90
11067;DHT22;29763;50.904;5.530;2023-07-29T06:00:58;18.60;99.90
11067;DHT22;29763;50.904;5.530;2023-07-29T06:03:30;18.80;99.90
11067;DHT22;29763;50.904;5.530;2023-07-29T06:05:55;18.90;99.90
11067;DHT22;29763;50.904;5.530;2023-07-29T06:08:24;19.00;99.90
11067;DHT22;29763;50.904;5.530;2023-07-29T06:10:58;19.10;99.90
11067;DHT22;29763;50.904;5.530;2023-07-29T06:13:24;19.10;99.90
11067;DHT22;29763;50.904;5.530;2023-07-29T06:15:50;19.20;99.90
11067;DHT22;29763;50.904;5.530;2023-07-29T06:18:22;19.20;99.90
11067;DHT22;29763;50.904;5.530;2023-07-29T06:20:48;19.30;99.90
11067;DHT22;29763;50.904;5.530;2023-07-29T06:23:14;19.40;99.90
11067;DHT22;29763;50.904;5.530;2023-07-29T06:25:41;19.40;99.90
11067;DHT22;29763;50.904;5.530;2023-07-29T06:28:13;19.30;99.90
11067;DHT22;29763;50.904;5.530;2023-07-29T06:30:43;19.40;99.90
11067;DHT22;29763;50.904;5.530;2023-07-29T06:33:09;19.30;99.90
11067;DHT22;29763;50.904;5.530;2023-07-29T06:35:42;19.50;99.90
11067;DHT22;29763;50.904;5.530;2023-07-29T06:38:07;20.10;99.90
11067;DHT22;29763;50.904;5.530;2023-07-29T06:40:34;20.70;99.90
11067;DHT22;29763;50.904;5.530;2023-07-29T06:43:00;21.20;99.90
11067;DHT22;29763;50.904;5.530;2023-07-29T06:45:30;21.70;99.90
11067;DHT22;29763;50.904;5.530;2023-07-29T06:47:56;22.40;99.90
11067;DHT22;29763;50.904;5.530;2023-07-29T06:50:28;22.70;99.90
11067;DHT22;29763;50.904;5.530;2023-07-29T06:52:53;22.80;99.90
11067;DHT22;29763;50.904;5.530;2023-07-29T06:55:25;22.60;99.90
11067;DHT22;29763;50.904;5.530;2023-07-29T06:57:52;22.20;99.90
11067;DHT22;29763;50.904;5.530;2023-07-29T07:00:19;21.70;99.90
11067;DHT22;29763;50.904;5.530;2023-07-29T07:02:47;21.50;99.90
11067;DHT22;29763;50.904;5.530;2023-07-29T07:05:12;21.20;99.90
11067;DHT22;29763;50.904;5.530;2023-07-29T07:07:39;21.10;99.90
11067;DHT22;29763;50.904;5.530;2023-07-29T07:10:07;21.00;99.90
11067;DHT22;29763;50.904;5.530;2023-07-29T07:12:33;20.90;99.90
11067;DHT22;29763;50.904;5.530;2023-07-29T07:15:00;20.90;99.90
11067;DHT22;29763;50.904;5.530;2023-07-29T07:17:29;21.00;99.90
11067;DHT22;29763;50.904;5.530;2023-07-29T07:19:54;21.20;99.90
11067;DHT22;29763;50.904;5.530;2023-07-29T07:22:20;21.50;99.90
11067;DHT22;29763;50.904;5.530;2023-07-29T07:24:46;21.80;99.90
11067;DHT22;29763;50.904;5.530;2023-07-29T07:27:12;22.10;99.90
11067;DHT22;29763;50.904;5.530;2023-07-29T07:29:37;22.40;99.90
11067;DHT22;29763;50.904;5.530;2023-07-29T07:32:03;22.80;99.90
11067;DHT22;29763;50.904;5.530;2023-07-29T07:34:30;23.50;99.90
11067;DHT22;29763;50.904;5.530;2023-07-29T07:36:56;23.90;99.90
11067;DHT22;29763;50.904;5.530;2023-07-29T07:39:22;23.90;99.90
11067;DHT22;29763;50.904;5.530;2023-07-29T07:41:47;23.50;99.90
11067;DHT22;29763;50.904;5.530;2023-07-29T07:44:13;23.10;99.90
11067;DHT22;29763;50.904;5.530;2023-07-29T07:46:42;22.80;99.90
11067;DHT22;29763;50.904;5.530;2023-07-29T07:49:09;22.40;99.90
11067;DHT22;29763;50.904;5.530;2023-07-29T07:51:35;22.10;99.90
11067;DHT22;29763;50.904;5.530;2023-07-29T07:54:01;22.10;99.90
11067;DHT22;29763;50.904;5.530;2023-07-29T07:56:28;22.10;99.90
11067;DHT22;29763;50.904;5.530;2023-07-29T07:58:54;22.10;99.90
11067;DHT22;29763;50.904;5.530;2023-07-29T08:01:19;22.00;99.90
11067;DHT22;29763;50.904;5.530;2023-07-29T08:03:45;21.80;99.90
11067;DHT22;29763;50.904;5.530;2023-07-29T08:06:11;21.90;99.90
11067;DHT22;29763;50.904;5.530;2023-07-29T08:08:37;21.90;99.90
11067;DHT22;29763;50.904;5.530;2023-07-29T08:11:02;22.00;99.90
11067;DHT22;29763;50.904;5.530;2023-07-29T08:13:28;22.10;99.90
11067;DHT22;29763;50.904;5.530;2023-07-29T08:15:55;22.00;99.90
11067;DHT22;29763;50.904;5.530;2023-07-29T08:18:26;22.00;99.90
11067;DHT22;29763;50.904;5.530;2023-07-29T08:21:01;21.90;99.90
11067;DHT22;29763;50.904;5.530;2023-07-29T08:23:40;21.80;99.90
11067;DHT22;29763;50.904;5.530;2023-07-29T08:26:07;21.90;99.90
11067;DHT22;29763;50.904;5.530;2023-07-29T08:28:51;22.20;99.90
11067;DHT22;29763;50.904;5.530;2023-07-29T08:31:20;22.60;99.90
11067;DHT22;29763;50.904;5.530;2023-07-29T08:33:47;22.80;99.90
11067;DHT22;29763;50.904;5.530;2023-07-29T08:36:23;23.00;99.90
11067;DHT22;29763;50.904;5.530;2023-07-29T08:38:48;23.10;99.90
11067;DHT22;29763;50.904;5.530;2023-07-29T08:41:29;23.30;99.90
11067;DHT22;29763;50.904;5.530;2023-07-29T08:44:36;23.60;99.90
11067;DHT22;29763;50.904;5.530;2023-07-29T08:47:07;23.90;99.90
11067;DHT22;29763;50.904;5.530;2023-07-29T08:49:33;23.90;99.90
11067;DHT22;29763;50.904;5.530;2023-07-29T08:52:09;24.10;99.90
11067;DHT22;29763;50.904;5.530;2023-07-29T08:54:40;24.40;99.90
11067;DHT22;29763;50.904;5.530;2023-07-29T08:57:06;24.60;99.90
11067;DHT22;29763;50.904;5.530;2023-07-29T08:59:33;25.00;99.90
11067;DHT22;29763;50.904;5.530;2023-07-29T09:01:59;25.20;99.90
11067;DHT22;29763;50.904;5.530;2023-07-29T09:04:28;25.30;99.90
11067;DHT22;29763;50.904;5.530;2023-07-29T09:06:57;25.40;99.90
11067;DHT22;29763;50.904;5.530;2023-07-29T09:09:25;25.50;99.90
11067;DHT22;29763;50.904;5.530;2023-07-29T09:11:51;26.00;99.90
11067;DHT22;29763;50.904;5.530;2023-07-29T09:14:20;26.60;99.90
11067;DHT22;29763;50.904;5.530;2023-07-29T09:16:48;27.10;99.90
11067;DHT22;29763;50.904;5.530;2023-07-29T09:19:17;27.60;99.90
11067;DHT22;29763;50.904;5.530;2023-07-29T09:21:59;27.40;99.90
11067;DHT22;29763;50.904;5.530;2023-07-29T09:24:25;27.50;99.90
11067;DHT22;29763;50.904;5.530;2023-07-29T09:26:55;27.30;99.90
11067;DHT22;29763;50.904;5.530;2023-07-29T09:29:24;27.20;99.90
11067;DHT22;29763;50.904;5.530;2023-07-29T09:32:18;27.80;99.90
11067;DHT22;29763;50.904;5.530;2023-07-29T09:34:44;28.50;99.90
11067;DHT22;29763;50.904;5.530;2023-07-29T09:37:16;29.30;99.90
11067;DHT22;29763;50.904;5.530;2023-07-29T09:39:50;30.20;99.90
11067;DHT22;29763;50.904;5.530;2023-07-29T09:42:21;30.90;99.90
11067;DHT22;29763;50.904;5.530;2023-07-29T09:44:49;31.40;99.90
11067;DHT22;29763;50.904;5.530;2023-07-29T09:47:26;31.20;99.90
11067;DHT22;29763;50.904;5.530;2023-07-29T09:49:53;30.80;99.90
11067;DHT22;29763;50.904;5.530;2023-07-29T09:52:22;30.00;99.90
11067;DHT22;29763;50.904;5.530;2023-07-29T09:54:49;29.30;99.90
11067;DHT22;29763;50.904;5.530;2023-07-29T09:57:22;28.80;99.90
11067;DHT22;29763;50.904;5.530;2023-07-29T09:59:55;28.20;99.90
11067;DHT22;29763;50.904;5.530;2023-07-29T10:02:22;27.30;99.90
11067;DHT22;29763;50.904;5.530;2023-07-29T10:04:49;26.70;99.90
11067;DHT22;29763;50.904;5.530;2023-07-29T10:07:18;26.40;99.90
11067;DHT22;29763;50.904;5.530;2023-07-29T10:09:56;26.70;99.90
11067;DHT22;29763;50.904;5.530;2023-07-29T10:12:28;27.40;99.90
11067;DHT22;29763;50.904;5.530;2023-07-29T10:15:04;28.40;99.90
11067;DHT22;29763;50.904;5.530;2023-07-29T10:17:34;29.50;99.90
11067;DHT22;29763;50.904;5.530;2023-07-29T10:20:00;30.50;99.90
11067;DHT22;29763;50.904;5.530;2023-07-29T10:22:37;31.00;99.90
11067;DHT22;29763;50.904;5.530;2023-07-29T10:25:10;30.80;99.90
11067;DHT22;29763;50.904;5.530;2023-07-29T10:27:48;30.40;99.90
11067;DHT22;29763;50.904;5.530;2023-07-29T10:30:15;29.60;99.90
11067;DHT22;29763;50.904;5.530;2023-07-29T10:32:45;29.20;99.90
11067;DHT22;29763;50.904;5.530;2023-07-29T10:35:15;29.40;99.90
11067;DHT22;29763;50.904;5.530;2023-07-29T10:37:43;29.80;99.90
11067;DHT22;29763;50.904;5.530;2023-07-29T10:40:16;30.20;99.90
11067;DHT22;29763;50.904;5.530;2023-07-29T10:43:03;30.60;99.90
11067;DHT22;29763;50.904;5.530;2023-07-29T10:45:39;31.30;99.90
11067;DHT22;29763;50.904;5.530;2023-07-29T10:48:12;31.90;99.90
11067;DHT22;29763;50.904;5.530;2023-07-29T10:50:39;31.90;99.90
11067;DHT22;29763;50.904;5.530;2023-07-29T10:53:07;31.80;99.90
11067;DHT22;29763;50.904;5.530;2023-07-29T10:55:35;31.60;99.90
11067;DHT22;29763;50.904;5.530;2023-07-29T11:00:43;31.80;99.90
11067;DHT22;29763;50.904;5.530;2023-07-29T11:03:11;31.90;99.90
11067;DHT22;29763;50.904;5.530;2023-07-29T11:05:50;31.60;99.90
11067;DHT22;29763;50.904;5.530;2023-07-29T11:08:35;31.30;99.90
11067;DHT22;29763;50.904;5.530;2023-07-29T11:11:06;31.60;99.90
11067;DHT22;29763;50.904;5.530;2023-07-29T11:13:34;31.80;99.90
11067;DHT22;29763;50.904;5.530;2023-07-29T11:16:03;31.80;99.90
11067;DHT22;29763;50.904;5.530;2023-07-29T11:18:34;31.50;99.90
11067;DHT22;29763;50.904;5.530;2023-07-29T11:21:01;30.60;99.90
11067;DHT22;29763;50.904;5.530;2023-07-29T11:23:49;30.10;99.90
11067;DHT22;29763;50.904;5.530;2023-07-29T11:26:18;29.40;99.90
11067;DHT22;29763;50.904;5.530;2023-07-29T11:28:46;28.60;99.90
11067;DHT22;29763;50.904;5.530;2023-07-29T11:31:12;28.10;99.90
11067;DHT22;29763;50.904;5.530;2023-07-29T11:33:40;27.90;99.90
11067;DHT22;29763;50.904;5.530;2023-07-29T11:36:26;27.60;99.90
11067;DHT22;29763;50.904;5.530;2023-07-29T11:38:58;27.00;99.90
11067;DHT22;29763;50.904;5.530;2023-07-29T11:41:25;26.40;99.90
11067;DHT22;29763;50.904;5.530;2023-07-29T11:43:51;25.80;99.90
11067;DHT22;29763;50.904;5.530;2023-07-29T11:46:21;25.00;99.90
11067;DHT22;29763;50.904;5.530;2023-07-29T11:48:49;24.50;99.90
11067;DHT22;29763;50.904;5.530;2023-07-29T11:51:18;24.10;99.90
11067;DHT22;29763;50.904;5.530;2023-07-29T11:53:47;23.70;99.90
11067;DHT22;29763;50.904;5.530;2023-07-29T11:56:16;23.50;99.90
11067;DHT22;29763;50.904;5.530;2023-07-29T11:58:43;23.20;99.90
11067;DHT22;29763;50.904;5.530;2023-07-29T12:01:16;23.10;99.90
11067;DHT22;29763;50.904;5.530;2023-07-29T12:03:43;22.90;99.90
11067;DHT22;29763;50.904;5.530;2023-07-29T12:06:19;22.70;99.90
11067;DHT22;29763;50.904;5.530;2023-07-29T12:09:09;22.60;99.90
11067;DHT22;29763;50.904;5.530;2023-07-29T12:11:35;22.40;99.90
11067;DHT22;29763;50.904;5.530;2023-07-29T12:14:08;22.20;99.90
11067;DHT22;29763;50.904;5.530;2023-07-29T12:16:46;21.90;99.90
11067;DHT22;29763;50.904;5.530;2023-07-29T12:19:15;21.40;99.90
11067;DHT22;29763;50.904;5.530;2023-07-29T12:21:44;20.60;99.90
11067;DHT22;29763;50.904;5.530;2023-07-29T12:24:13;20.40;99.90
11067;DHT22;29763;50.904;5.530;2023-07-29T12:26:42;20.40;99.90
11067;DHT22;29763;50.904;5.530;2023-07-29T12:29:18;20.70;99.90
11067;DHT22;29763;50.904;5.530;2023-07-29T12:32:02;20.80;99.90
11067;DHT22;29763;50.904;5.530;2023-07-29T12:34:38;20.90;99.90
11067;DHT22;29763;50.904;5.530;2023-07-29T12:37:06;20.80;99.90
11067;DHT22;29763;50.904;5.530;2023-07-29T12:39:45;20.70;99.90
11067;DHT22;29763;50.904;5.530;2023-07-29T12:42:23;20.60;99.90
11067;DHT22;29763;50.904;5.530;2023-07-29T12:44:50;20.50;99.90
11067;DHT22;29763;50.904;5.530;2023-07-29T12:47:16;20.40;99.90
11067;DHT22;29763;50.904;5.530;2023-07-29T12:49:42;20.40;99.90
11067;DHT22;29763;50.904;5.530;2023-07-29T12:52:08;20.40;99.90
11067;DHT22;29763;50.904;5.530;2023-07-29T12:54:33;20.50;99.90
11067;DHT22;29763;50.904;5.530;2023-07-29T12:57:02;20.70;99.90
11067;DHT22;29763;50.904;5.530;2023-07-29T12:59:31;20.90;99.90
11067;DHT22;29763;50.904;5.530;2023-07-29T13:01:57;21.30;99.90
11067;DHT22;29763;50.904;5.530;2023-07-29T13:04:25;21.90;99.90
11067;DHT22;29763;50.904;5.530;2023-07-29T13:06:54;22.40;99.90
11067;DHT22;29763;50.904;5.530;2023-07-29T13:09:22;23.30;99.90
11067;DHT22;29763;50.904;5.530;2023-07-29T13:11:49;24.30;99.90
11067;DHT22;29763;50.904;5.530;2023-07-29T13:14:18;25.10;99.90
11067;DHT22;29763;50.904;5.530;2023-07-29T13:16:43;25.80;99.90
11067;DHT22;29763;50.904;5.530;2023-07-29T13:19:09;26.10;99.90
11067;DHT22;29763;50.904;5.530;2023-07-29T13:21:35;26.40;99.90
11067;DHT22;29763;50.904;5.530;2023-07-29T13:24:01;26.20;99.90
11067;DHT22;29763;50.904;5.530;2023-07-29T13:26:27;25.70;99.90
11067;DHT22;29763;50.904;5.530;2023-07-29T13:28:52;25.70;99.90
11067;DHT22;29763;50.904;5.530;2023-07-29T13:31:18;25.50;99.90
11067;DHT22;29763;50.904;5.530;2023-07-29T13:33:44;25.50;99.90
11067;DHT22;29763;50.904;5.530;2023-07-29T13:36:13;25.60;99.90
11067;DHT22;29763;50.904;5.530;2023-07-29T13:38:39;25.70;99.90
11067;DHT22;29763;50.904;5.530;2023-07-29T13:41:06;25.80;99.90
11067;DHT22;29763;50.904;5.530;2023-07-29T13:43:32;25.70;99.90
11067;DHT22;29763;50.904;5.530;2023-07-29T13:46:02;25.70;99.90
11067;DHT22;29763;50.904;5.530;2023-07-29T13:48:28;25.80;99.90
11067;DHT22;29763;50.904;5.530;2023-07-29T13:50:53;25.90;99.90
11067;DHT22;29763;50.904;5.530;2023-07-29T13:53:20;25.90;99.90
11067;DHT22;29763;50.904;5.530;2023-07-29T13:55:50;25.80;99.90
11067;DHT22;29763;50.904;5.530;2023-07-29T13:58:20;25.40;99.90
11067;DHT22;29763;50.904;5.530;2023-07-29T14:00:47;24.90;99.90
11067;DHT22;29763;50.904;5.530;2023-07-29T14:03:13;24.40;99.90
11067;DHT22;29763;50.904;5.530;2023-07-29T14:05:39;23.90;99.90
11067;DHT22;29763;50.904;5.530;2023-07-29T14:08:07;23.50;99.90
11067;DHT22;29763;50.904;5.530;2023-07-29T14:10:34;23.00;99.90
11067;DHT22;29763;50.904;5.530;2023-07-29T14:13:00;22.90;99.90
11067;DHT22;29763;50.904;5.530;2023-07-29T14:15:26;23.00;99.90
11067;DHT22;29763;50.904;5.530;2023-07-29T14:17:54;23.30;99.90
11067;DHT22;29763;50.904;5.530;2023-07-29T14:20:21;23.80;99.90
11067;DHT22;29763;50.904;5.530;2023-07-29T14:22:47;24.50;99.90
11067;DHT22;29763;50.904;5.530;2023-07-29T14:25:16;25.00;99.90
11067;DHT22;29763;50.904;5.530;2023-07-29T14:27:41;25.20;99.90
11067;DHT22;29763;50.904;5.530;2023-07-29T14:30:10;25.30;99.90
11067;DHT22;29763;50.904;5.530;2023-07-29T14:32:37;25.20;99.90
11067;DHT22;29763;50.904;5.530;2023-07-29T14:35:07;25.10;99.90
11067;DHT22;29763;50.904;5.530;2023-07-29T14:37:34;25.00;99.90
11067;DHT22;29763;50.904;5.530;2023-07-29T14:40:01;24.90;99.90
11067;DHT22;29763;50.904;5.530;2023-07-29T14:42:27;24.90;99.90
11067;DHT22;29763;50.904;5.530;2023-07-29T14:44:54;24.80;99.90
11067;DHT22;29763;50.904;5.530;2023-07-29T14:47:20;24.90;99.90
11067;DHT22;29763;50.904;5.530;2023-07-29T14:49:48;25.00;99.90
11067;DHT22;29763;50.904;5.530;2023-07-29T14:52:14;25.30;99.90
11067;DHT22;29763;50.904;5.530;2023-07-29T14:54:40;25.70;99.90
11067;DHT22;29763;50.904;5.530;2023-07-29T14:57:07;26.20;99.90
11067;DHT22;29763;50.904;5.530;2023-07-29T14:59:33;26.60;99.90
11067;DHT22;29763;50.904;5.530;2023-07-29T15:02:03;27.10;99.90
11067;DHT22;29763;50.904;5.530;2023-07-29T15:04:28;27.60;99.90
11067;DHT22;29763;50.904;5.530;2023-07-29T15:06:56;27.70;99.90
11067;DHT22;29763;50.904;5.530;2023-07-29T15:09:25;27.50;99.90
11067;DHT22;29763;50.904;5.530;2023-07-29T15:11:51;27.10;99.90
11067;DHT22;29763;50.904;5.530;2023-07-29T15:14:17;26.50;99.90
11067;DHT22;29763;50.904;5.530;2023-07-29T15:16:45;26.30;99.90
11067;DHT22;29763;50.904;5.530;2023-07-29T15:19:11;26.00;99.90
11067;DHT22;29763;50.904;5.530;2023-07-29T15:21:36;25.90;99.90
11067;DHT22;29763;50.904;5.530;2023-07-29T15:24:02;25.90;99.90
11067;DHT22;29763;50.904;5.530;2023-07-29T15:26:29;26.20;99.90
11067;DHT22;29763;50.904;5.530;2023-07-29T15:28:55;26.90;99.90
11067;DHT22;29763;50.904;5.530;2023-07-29T15:31:21;27.50;99.90
11067;DHT22;29763;50.904;5.530;2023-07-29T15:33:47;27.80;99.90
11067;DHT22;29763;50.904;5.530;2023-07-29T15:36:15;27.90;99.90
11067;DHT22;29763;50.904;5.530;2023-07-29T15:38:41;27.90;99.90
11067;DHT22;29763;50.904;5.530;2023-07-29T15:41:08;28.10;99.90
11067;DHT22;29763;50.904;5.530;2023-07-29T15:43:33;28.20;99.90
11067;DHT22;29763;50.904;5.530;2023-07-29T15:46:05;28.20;99.90
11067;DHT22;29763;50.904;5.530;2023-07-29T15:48:31;27.90;99.90